Port Barrington, Illinois
Current Conditions -  °F | °C
As of 9:52 AM on Friday 28 Nov 2014 (Local Time) from KPWK Reporting Station
Broken Clouds Broken Clouds  
Wind Chill:   Ceiling: 8000
Heat Index: 22°   Visibility: 10mi
Dew Point: 14°   Wind: 14mph
Humidity: 72%   Direction: 170°S
Pressure: 30.23"   Gusts: NA
Location:  42.1512°N, 88.1636°W
Report Text: KPWK 281552Z 17012KT 10SM SCT060 BKN080 BKN100 M06/M10 A3023 RMK AO2 SLP248 T10561100
Loading
Personal Weather Stations






























Interactive Weather Map New forecast layout! Learn more

10-Day Weather Forecast

Advertisements
Track Severe Weather on mobile